Terminal Aerodrome Forecast
Issued by NWS Bismarck, ND

Home | Current Version | Previous Version | Graphics & Text | Print | Product List | Glossary On
Versions: 1 2 3 4 5 6 7 8 9 10 11 12 13 14 15 16 17 18
000
FTUS43 KBIS 241500 AAA
TAFISN
TAF AMD
KISN 241523Z 2415/2512 34006KT P6SM VCSH OVC013
     FM241800 32008KT P6SM -SHRA OVC015
     FM242100 33008KT P6SM -SHRA SCT006 OVC010
     FM250600 31010KT P6SM -SHRA OVC007=

USA.gov is the U.S. government's official web portal to all federal, state and local government web resources and services.